sensor_id;sensor_type;location;lat;lon;timestamp;P1;durP1;ratioP1;P2;durP2;ratioP2
73729;SDS011;62036;48.128;16.458;2024-03-07T00:02:04;9.32;;;5.70;;
73729;SDS011;62036;48.128;16.458;2024-03-07T00:04:30;13.15;;;7.78;;
73729;SDS011;62036;48.128;16.458;2024-03-07T00:06:56;8.23;;;5.38;;
73729;SDS011;62036;48.128;16.458;2024-03-07T00:09:22;8.27;;;4.85;;
73729;SDS011;62036;48.128;16.458;2024-03-07T00:11:49;8.68;;;5.32;;
73729;SDS011;62036;48.128;16.458;2024-03-07T00:14:15;7.70;;;4.70;;
73729;SDS011;62036;48.128;16.458;2024-03-07T00:16:41;7.75;;;5.57;;
73729;SDS011;62036;48.128;16.458;2024-03-07T00:19:07;7.85;;;5.57;;
73729;SDS011;62036;48.128;16.458;2024-03-07T00:21:33;12.05;;;6.57;;
73729;SDS011;62036;48.128;16.458;2024-03-07T00:23:59;8.50;;;5.53;;
73729;SDS011;62036;48.128;16.458;2024-03-07T00:26:26;8.68;;;4.88;;
73729;SDS011;62036;48.128;16.458;2024-03-07T00:28:52;9.90;;;5.93;;
73729;SDS011;62036;48.128;16.458;2024-03-07T00:31:18;8.80;;;5.85;;
73729;SDS011;62036;48.128;16.458;2024-03-07T00:33:44;8.45;;;6.47;;
73729;SDS011;62036;48.128;16.458;2024-03-07T00:36:10;9.32;;;4.97;;
73729;SDS011;62036;48.128;16.458;2024-03-07T00:38:37;8.02;;;5.78;;
73729;SDS011;62036;48.128;16.458;2024-03-07T00:41:03;6.75;;;4.75;;
73729;SDS011;62036;48.128;16.458;2024-03-07T00:43:29;10.13;;;5.00;;
73729;SDS011;62036;48.128;16.458;2024-03-07T00:45:55;8.82;;;4.80;;
73729;SDS011;62036;48.128;16.458;2024-03-07T00:48:22;10.48;;;6.38;;
73729;SDS011;62036;48.128;16.458;2024-03-07T00:50:50;8.63;;;5.88;;
73729;SDS011;62036;48.128;16.458;2024-03-07T00:53:16;7.53;;;5.10;;
73729;SDS011;62036;48.128;16.458;2024-03-07T00:55:42;6.72;;;5.28;;
73729;SDS011;62036;48.128;16.458;2024-03-07T00:58:09;7.65;;;5.13;;
73729;SDS011;62036;48.128;16.458;2024-03-07T01:00:35;10.90;;;5.72;;
73729;SDS011;62036;48.128;16.458;2024-03-07T01:03:01;9.27;;;5.55;;
73729;SDS011;62036;48.128;16.458;2024-03-07T01:05:27;8.40;;;5.53;;
73729;SDS011;62036;48.128;16.458;2024-03-07T01:07:54;8.35;;;5.10;;
73729;SDS011;62036;48.128;16.458;2024-03-07T01:10:20;7.72;;;5.90;;
73729;SDS011;62036;48.128;16.458;2024-03-07T01:12:47;9.32;;;5.28;;
73729;SDS011;62036;48.128;16.458;2024-03-07T01:15:15;9.43;;;5.90;;
73729;SDS011;62036;48.128;16.458;2024-03-07T01:17:41;5.90;;;5.32;;
73729;SDS011;62036;48.128;16.458;2024-03-07T01:20:07;11.13;;;6.15;;
73729;SDS011;62036;48.128;16.458;2024-03-07T01:22:34;9.48;;;4.97;;
73729;SDS011;62036;48.128;16.458;2024-03-07T01:25:00;10.23;;;6.00;;
73729;SDS011;62036;48.128;16.458;2024-03-07T01:27:26;10.20;;;5.35;;
73729;SDS011;62036;48.128;16.458;2024-03-07T01:29:52;6.43;;;4.63;;
73729;SDS011;62036;48.128;16.458;2024-03-07T01:32:18;6.38;;;3.50;;
73729;SDS011;62036;48.128;16.458;2024-03-07T01:34:44;6.78;;;4.63;;
73729;SDS011;62036;48.128;16.458;2024-03-07T01:37:10;9.38;;;5.22;;
73729;SDS011;62036;48.128;16.458;2024-03-07T01:39:36;8.65;;;5.43;;
73729;SDS011;62036;48.128;16.458;2024-03-07T01:42:02;7.93;;;4.40;;
73729;SDS011;62036;48.128;16.458;2024-03-07T01:44:29;10.40;;;6.03;;
73729;SDS011;62036;48.128;16.458;2024-03-07T01:46:57;10.30;;;4.75;;
73729;SDS011;62036;48.128;16.458;2024-03-07T01:49:25;10.45;;;4.80;;
73729;SDS011;62036;48.128;16.458;2024-03-07T01:51:51;8.60;;;5.50;;
73729;SDS011;62036;48.128;16.458;2024-03-07T01:54:18;7.28;;;5.43;;
73729;SDS011;62036;48.128;16.458;2024-03-07T01:56:44;9.05;;;5.05;;
73729;SDS011;62036;48.128;16.458;2024-03-07T01:59:10;9.32;;;4.97;;
73729;SDS011;62036;48.128;16.458;2024-03-07T02:01:36;8.45;;;5.00;;
73729;SDS011;62036;48.128;16.458;2024-03-07T02:04:03;11.70;;;6.03;;
73729;SDS011;62036;48.128;16.458;2024-03-07T02:06:29;7.30;;;3.35;;
73729;SDS011;62036;48.128;16.458;2024-03-07T02:08:55;7.82;;;5.20;;
73729;SDS011;62036;48.128;16.458;2024-03-07T02:11:22;9.27;;;4.70;;
73729;SDS011;62036;48.128;16.458;2024-03-07T02:13:48;8.98;;;5.07;;
73729;SDS011;62036;48.128;16.458;2024-03-07T02:16:14;10.93;;;5.25;;
73729;SDS011;62036;48.128;16.458;2024-03-07T02:18:41;10.75;;;6.38;;
73729;SDS011;62036;48.128;16.458;2024-03-07T02:21:07;8.18;;;4.32;;
73729;SDS011;62036;48.128;16.458;2024-03-07T02:23:36;10.07;;;6.35;;
73729;SDS011;62036;48.128;16.458;2024-03-07T02:26:03;11.27;;;4.97;;
73729;SDS011;62036;48.128;16.458;2024-03-07T02:28:29;10.25;;;5.25;;
73729;SDS011;62036;48.128;16.458;2024-03-07T02:30:55;8.65;;;5.07;;
73729;SDS011;62036;48.128;16.458;2024-03-07T02:33:21;8.95;;;4.28;;
73729;SDS011;62036;48.128;16.458;2024-03-07T02:35:48;9.65;;;5.00;;
73729;SDS011;62036;48.128;16.458;2024-03-07T02:38:14;8.02;;;5.03;;
73729;SDS011;62036;48.128;16.458;2024-03-07T02:40:40;11.50;;;5.63;;
73729;SDS011;62036;48.128;16.458;2024-03-07T02:43:06;15.10;;;7.53;;
73729;SDS011;62036;48.128;16.458;2024-03-07T02:45:32;9.65;;;5.43;;
73729;SDS011;62036;48.128;16.458;2024-03-07T02:47:58;12.57;;;6.43;;
73729;SDS011;62036;48.128;16.458;2024-03-07T02:50:24;11.05;;;6.20;;
73729;SDS011;62036;48.128;16.458;2024-03-07T02:52:50;10.70;;;6.40;;
73729;SDS011;62036;48.128;16.458;2024-03-07T02:55:17;11.00;;;6.22;;
73729;SDS011;62036;48.128;16.458;2024-03-07T02:57:44;12.40;;;6.70;;
73729;SDS011;62036;48.128;16.458;2024-03-07T03:00:10;10.23;;;5.35;;
73729;SDS011;62036;48.128;16.458;2024-03-07T03:02:51;9.88;;;6.07;;
73729;SDS011;62036;48.128;16.458;2024-03-07T03:05:17;11.88;;;6.80;;
73729;SDS011;62036;48.128;16.458;2024-03-07T03:07:44;8.70;;;5.63;;
73729;SDS011;62036;48.128;16.458;2024-03-07T03:10:19;10.85;;;5.85;;
73729;SDS011;62036;48.128;16.458;2024-03-07T03:12:45;12.88;;;6.53;;
73729;SDS011;62036;48.128;16.458;2024-03-07T03:15:12;9.45;;;6.45;;
73729;SDS011;62036;48.128;16.458;2024-03-07T03:17:40;9.57;;;5.65;;
73729;SDS011;62036;48.128;16.458;2024-03-07T03:20:06;9.15;;;5.28;;
73729;SDS011;62036;48.128;16.458;2024-03-07T03:22:49;13.77;;;5.55;;
73729;SDS011;62036;48.128;16.458;2024-03-07T03:25:15;12.73;;;6.60;;
73729;SDS011;62036;48.128;16.458;2024-03-07T03:27:41;14.52;;;8.60;;
73729;SDS011;62036;48.128;16.458;2024-03-07T03:30:07;11.52;;;6.43;;
73729;SDS011;62036;48.128;16.458;2024-03-07T03:32:33;15.20;;;6.30;;
73729;SDS011;62036;48.128;16.458;2024-03-07T03:34:59;9.23;;;5.47;;
73729;SDS011;62036;48.128;16.458;2024-03-07T03:37:25;17.73;;;8.35;;
73729;SDS011;62036;48.128;16.458;2024-03-07T03:39:51;8.27;;;5.07;;
73729;SDS011;62036;48.128;16.458;2024-03-07T03:42:17;7.75;;;4.78;;
73729;SDS011;62036;48.128;16.458;2024-03-07T03:44:43;10.63;;;6.57;;
73729;SDS011;62036;48.128;16.458;2024-03-07T03:47:09;10.98;;;4.70;;
73729;SDS011;62036;48.128;16.458;2024-03-07T03:49:35;9.23;;;5.22;;
73729;SDS011;62036;48.128;16.458;2024-03-07T03:52:02;12.00;;;4.43;;
73729;SDS011;62036;48.128;16.458;2024-03-07T03:54:28;8.57;;;3.90;;
73729;SDS011;62036;48.128;16.458;2024-03-07T03:56:54;11.68;;;6.03;;
73729;SDS011;62036;48.128;16.458;2024-03-07T03:59:20;8.18;;;3.67;;
73729;SDS011;62036;48.128;16.458;2024-03-07T04:01:46;16.67;;;6.60;;
73729;SDS011;62036;48.128;16.458;2024-03-07T04:04:13;9.07;;;4.30;;
73729;SDS011;62036;48.128;16.458;2024-03-07T04:06:39;8.25;;;4.57;;
73729;SDS011;62036;48.128;16.458;2024-03-07T04:09:05;7.07;;;3.90;;
73729;SDS011;62036;48.128;16.458;2024-03-07T04:11:32;7.40;;;4.07;;
73729;SDS011;62036;48.128;16.458;2024-03-07T04:13:58;8.70;;;4.35;;
73729;SDS011;62036;48.128;16.458;2024-03-07T04:16:24;7.90;;;4.47;;
73729;SDS011;62036;48.128;16.458;2024-03-07T04:18:50;9.93;;;5.25;;
73729;SDS011;62036;48.128;16.458;2024-03-07T04:21:16;9.25;;;4.32;;
73729;SDS011;62036;48.128;16.458;2024-03-07T04:23:42;6.90;;;3.92;;
73729;SDS011;62036;48.128;16.458;2024-03-07T04:26:10;8.82;;;4.10;;
73729;SDS011;62036;48.128;16.458;2024-03-07T04:28:36;6.25;;;3.75;;
73729;SDS011;62036;48.128;16.458;2024-03-07T04:31:03;8.60;;;5.00;;
73729;SDS011;62036;48.128;16.458;2024-03-07T04:33:29;6.50;;;3.88;;
73729;SDS011;62036;48.128;16.458;2024-03-07T04:35:55;9.20;;;4.03;;
73729;SDS011;62036;48.128;16.458;2024-03-07T04:38:21;7.35;;;4.35;;
73729;SDS011;62036;48.128;16.458;2024-03-07T04:40:47;7.85;;;4.25;;
73729;SDS011;62036;48.128;16.458;2024-03-07T04:43:13;8.13;;;4.90;;
73729;SDS011;62036;48.128;16.458;2024-03-07T04:45:40;6.72;;;4.30;;
73729;SDS011;62036;48.128;16.458;2024-03-07T04:48:06;8.13;;;4.65;;
73729;SDS011;62036;48.128;16.458;2024-03-07T04:50:33;6.50;;;4.43;;
73729;SDS011;62036;48.128;16.458;2024-03-07T04:52:59;5.82;;;3.90;;
73729;SDS011;62036;48.128;16.458;2024-03-07T04:55:25;7.32;;;4.32;;
73729;SDS011;62036;48.128;16.458;2024-03-07T04:57:51;6.13;;;3.65;;
73729;SDS011;62036;48.128;16.458;2024-03-07T05:00:17;6.97;;;5.40;;
73729;SDS011;62036;48.128;16.458;2024-03-07T05:02:45;5.80;;;3.70;;
73729;SDS011;62036;48.128;16.458;2024-03-07T05:05:11;8.02;;;4.63;;
73729;SDS011;62036;48.128;16.458;2024-03-07T05:07:38;8.13;;;4.35;;
73729;SDS011;62036;48.128;16.458;2024-03-07T05:10:05;6.75;;;3.72;;
73729;SDS011;62036;48.128;16.458;2024-03-07T05:12:32;9.18;;;4.90;;
73729;SDS011;62036;48.128;16.458;2024-03-07T05:14:58;6.70;;;4.10;;
73729;SDS011;62036;48.128;16.458;2024-03-07T05:17:24;7.47;;;4.22;;
73729;SDS011;62036;48.128;16.458;2024-03-07T05:19:50;9.13;;;5.40;;
73729;SDS011;62036;48.128;16.458;2024-03-07T05:22:16;6.28;;;3.60;;
73729;SDS011;62036;48.128;16.458;2024-03-07T05:24:45;7.93;;;4.15;;
73729;SDS011;62036;48.128;16.458;2024-03-07T05:27:11;7.97;;;4.18;;
73729;SDS011;62036;48.128;16.458;2024-03-07T05:29:37;10.20;;;4.55;;
73729;SDS011;62036;48.128;16.458;2024-03-07T05:32:19;8.75;;;4.75;;
73729;SDS011;62036;48.128;16.458;2024-03-07T05:34:46;11.45;;;6.00;;
73729;SDS011;62036;48.128;16.458;2024-03-07T05:37:12;8.00;;;4.78;;
73729;SDS011;62036;48.128;16.458;2024-03-07T05:39:38;11.82;;;5.90;;
73729;SDS011;62036;48.128;16.458;2024-03-07T05:42:04;10.05;;;4.78;;
73729;SDS011;62036;48.128;16.458;2024-03-07T05:44:32;7.20;;;5.25;;
73729;SDS011;62036;48.128;16.458;2024-03-07T05:46:58;6.90;;;3.67;;
73729;SDS011;62036;48.128;16.458;2024-03-07T05:49:24;7.38;;;4.35;;
73729;SDS011;62036;48.128;16.458;2024-03-07T05:51:50;7.50;;;4.38;;
73729;SDS011;62036;48.128;16.458;2024-03-07T05:54:16;11.85;;;3.75;;
73729;SDS011;62036;48.128;16.458;2024-03-07T05:56:43;9.80;;;5.97;;
73729;SDS011;62036;48.128;16.458;2024-03-07T05:59:09;8.40;;;4.57;;
73729;SDS011;62036;48.128;16.458;2024-03-07T06:01:35;7.25;;;4.93;;
73729;SDS011;62036;48.128;16.458;2024-03-07T06:04:02;8.30;;;5.15;;
73729;SDS011;62036;48.128;16.458;2024-03-07T06:06:30;9.55;;;5.65;;
73729;SDS011;62036;48.128;16.458;2024-03-07T06:08:58;8.25;;;5.07;;
73729;SDS011;62036;48.128;16.458;2024-03-07T06:11:24;7.00;;;4.57;;
73729;SDS011;62036;48.128;16.458;2024-03-07T06:13:51;8.88;;;4.53;;
73729;SDS011;62036;48.128;16.458;2024-03-07T06:16:17;9.27;;;5.57;;
73729;SDS011;62036;48.128;16.458;2024-03-07T06:18:43;8.20;;;4.80;;
73729;SDS011;62036;48.128;16.458;2024-03-07T06:21:12;8.30;;;5.15;;
73729;SDS011;62036;48.128;16.458;2024-03-07T06:23:38;9.60;;;4.13;;
73729;SDS011;62036;48.128;16.458;2024-03-07T06:26:04;6.65;;;5.18;;
73729;SDS011;62036;48.128;16.458;2024-03-07T06:28:38;9.70;;;4.05;;
73729;SDS011;62036;48.128;16.458;2024-03-07T06:31:04;11.35;;;7.78;;
73729;SDS011;62036;48.128;16.458;2024-03-07T06:33:33;6.75;;;4.00;;
73729;SDS011;62036;48.128;16.458;2024-03-07T06:35:59;7.78;;;5.00;;
73729;SDS011;62036;48.128;16.458;2024-03-07T06:38:28;11.20;;;6.88;;
73729;SDS011;62036;48.128;16.458;2024-03-07T06:40:54;9.18;;;5.97;;
73729;SDS011;62036;48.128;16.458;2024-03-07T06:43:20;10.68;;;5.50;;
73729;SDS011;62036;48.128;16.458;2024-03-07T06:45:46;8.35;;;4.90;;
73729;SDS011;62036;48.128;16.458;2024-03-07T06:48:12;5.88;;;3.95;;
73729;SDS011;62036;48.128;16.458;2024-03-07T06:50:39;9.55;;;5.28;;
73729;SDS011;62036;48.128;16.458;2024-03-07T06:53:05;8.00;;;5.28;;
73729;SDS011;62036;48.128;16.458;2024-03-07T06:55:32;9.30;;;5.28;;
73729;SDS011;62036;48.128;16.458;2024-03-07T06:58:02;8.10;;;5.22;;
73729;SDS011;62036;48.128;16.458;2024-03-07T07:00:29;9.18;;;5.50;;
73729;SDS011;62036;48.128;16.458;2024-03-07T07:02:57;8.90;;;4.30;;
73729;SDS011;62036;48.128;16.458;2024-03-07T07:05:23;9.18;;;4.80;;
73729;SDS011;62036;48.128;16.458;2024-03-07T07:07:49;9.27;;;6.47;;
73729;SDS011;62036;48.128;16.458;2024-03-07T07:10:18;9.45;;;5.72;;
73729;SDS011;62036;48.128;16.458;2024-03-07T07:12:44;9.82;;;5.07;;
73729;SDS011;62036;48.128;16.458;2024-03-07T07:15:11;9.20;;;4.85;;
73729;SDS011;62036;48.128;16.458;2024-03-07T07:17:37;8.73;;;3.90;;
73729;SDS011;62036;48.128;16.458;2024-03-07T07:20:03;9.25;;;4.28;;
73729;SDS011;62036;48.128;16.458;2024-03-07T07:22:38;7.38;;;5.15;;
73729;SDS011;62036;48.128;16.458;2024-03-07T07:25:05;7.97;;;3.70;;
73729;SDS011;62036;48.128;16.458;2024-03-07T07:27:38;10.43;;;5.80;;
73729;SDS011;62036;48.128;16.458;2024-03-07T07:30:04;6.10;;;3.58;;
73729;SDS011;62036;48.128;16.458;2024-03-07T07:32:31;8.60;;;5.32;;
73729;SDS011;62036;48.128;16.458;2024-03-07T07:34:57;8.50;;;4.65;;
73729;SDS011;62036;48.128;16.458;2024-03-07T07:37:24;8.88;;;5.53;;
73729;SDS011;62036;48.128;16.458;2024-03-07T07:39:50;7.78;;;4.50;;
73729;SDS011;62036;48.128;16.458;2024-03-07T07:42:16;9.35;;;5.60;;
73729;SDS011;62036;48.128;16.458;2024-03-07T07:44:42;9.95;;;5.05;;
73729;SDS011;62036;48.128;16.458;2024-03-07T07:47:08;10.00;;;5.50;;
73729;SDS011;62036;48.128;16.458;2024-03-07T07:49:36;9.30;;;5.28;;
73729;SDS011;62036;48.128;16.458;2024-03-07T07:52:03;8.15;;;4.75;;
73729;SDS011;62036;48.128;16.458;2024-03-07T07:54:29;12.63;;;5.88;;
73729;SDS011;62036;48.128;16.458;2024-03-07T07:56:56;8.73;;;4.28;;
73729;SDS011;62036;48.128;16.458;2024-03-07T07:59:22;8.00;;;4.68;;
73729;SDS011;62036;48.128;16.458;2024-03-07T08:01:49;11.73;;;6.78;;
73729;SDS011;62036;48.128;16.458;2024-03-07T08:04:18;7.82;;;4.53;;
73729;SDS011;62036;48.128;16.458;2024-03-07T08:06:44;8.60;;;5.80;;
73729;SDS011;62036;48.128;16.458;2024-03-07T08:09:10;7.10;;;4.88;;
73729;SDS011;62036;48.128;16.458;2024-03-07T08:11:36;8.23;;;4.50;;
73729;SDS011;62036;48.128;16.458;2024-03-07T08:14:03;6.43;;;3.55;;
73729;SDS011;62036;48.128;16.458;2024-03-07T08:16:29;6.53;;;4.90;;
73729;SDS011;62036;48.128;16.458;2024-03-07T08:18:55;7.18;;;3.95;;
73729;SDS011;62036;48.128;16.458;2024-03-07T08:21:21;7.55;;;3.97;;
73729;SDS011;62036;48.128;16.458;2024-03-07T08:23:48;8.20;;;4.78;;
73729;SDS011;62036;48.128;16.458;2024-03-07T08:26:14;6.28;;;4.63;;
73729;SDS011;62036;48.128;16.458;2024-03-07T08:28:41;10.05;;;4.00;;
73729;SDS011;62036;48.128;16.458;2024-03-07T08:31:06;7.43;;;4.00;;
73729;SDS011;62036;48.128;16.458;2024-03-07T08:33:34;7.10;;;4.18;;
73729;SDS011;62036;48.128;16.458;2024-03-07T08:36:00;5.47;;;3.47;;
73729;SDS011;62036;48.128;16.458;2024-03-07T08:38:26;11.77;;;5.93;;
73729;SDS011;62036;48.128;16.458;2024-03-07T08:40:52;5.10;;;3.65;;
73729;SDS011;62036;48.128;16.458;2024-03-07T08:43:18;6.15;;;3.30;;
73729;SDS011;62036;48.128;16.458;2024-03-07T08:45:44;6.63;;;3.92;;
73729;SDS011;62036;48.128;16.458;2024-03-07T08:48:10;9.20;;;5.57;;
73729;SDS011;62036;48.128;16.458;2024-03-07T08:50:38;6.13;;;4.78;;
73729;SDS011;62036;48.128;16.458;2024-03-07T08:53:04;9.13;;;4.15;;
73729;SDS011;62036;48.128;16.458;2024-03-07T08:55:30;5.00;;;3.33;;
73729;SDS011;62036;48.128;16.458;2024-03-07T08:57:56;9.75;;;5.38;;
73729;SDS011;62036;48.128;16.458;2024-03-07T09:00:22;5.93;;;4.35;;
73729;SDS011;62036;48.128;16.458;2024-03-07T09:02:52;7.57;;;3.90;;
73729;SDS011;62036;48.128;16.458;2024-03-07T09:05:19;8.10;;;4.68;;
73729;SDS011;62036;48.128;16.458;2024-03-07T09:07:47;6.32;;;3.97;;
73729;SDS011;62036;48.128;16.458;2024-03-07T09:10:13;9.80;;;5.13;;
73729;SDS011;62036;48.128;16.458;2024-03-07T09:12:42;7.88;;;5.00;;
73729;SDS011;62036;48.128;16.458;2024-03-07T09:15:09;7.05;;;4.68;;
73729;SDS011;62036;48.128;16.458;2024-03-07T09:17:38;6.88;;;3.90;;
73729;SDS011;62036;48.128;16.458;2024-03-07T09:20:05;10.10;;;5.45;;
73729;SDS011;62036;48.128;16.458;2024-03-07T09:22:32;7.50;;;4.65;;
73729;SDS011;62036;48.128;16.458;2024-03-07T09:24:58;7.13;;;4.10;;
73729;SDS011;62036;48.128;16.458;2024-03-07T09:27:25;4.57;;;3.28;;
73729;SDS011;62036;48.128;16.458;2024-03-07T09:29:51;10.85;;;4.82;;
73729;SDS011;62036;48.128;16.458;2024-03-07T09:32:17;10.02;;;5.43;;
73729;SDS011;62036;48.128;16.458;2024-03-07T09:34:43;9.77;;;4.28;;
73729;SDS011;62036;48.128;16.458;2024-03-07T09:37:09;7.55;;;3.88;;
73729;SDS011;62036;48.128;16.458;2024-03-07T09:39:35;8.02;;;5.70;;
73729;SDS011;62036;48.128;16.458;2024-03-07T09:42:02;4.90;;;3.53;;
73729;SDS011;62036;48.128;16.458;2024-03-07T09:44:28;6.05;;;3.65;;
73729;SDS011;62036;48.128;16.458;2024-03-07T09:46:56;8.55;;;4.43;;
73729;SDS011;62036;48.128;16.458;2024-03-07T09:49:25;7.85;;;4.40;;
73729;SDS011;62036;48.128;16.458;2024-03-07T09:51:53;9.25;;;4.72;;
73729;SDS011;62036;48.128;16.458;2024-03-07T09:54:22;9.80;;;5.35;;
73729;SDS011;62036;48.128;16.458;2024-03-07T09:56:54;8.10;;;4.70;;
73729;SDS011;62036;48.128;16.458;2024-03-07T09:59:23;7.75;;;4.00;;
73729;SDS011;62036;48.128;16.458;2024-03-07T10:01:51;6.35;;;4.82;;
73729;SDS011;62036;48.128;16.458;2024-03-07T10:04:23;6.70;;;3.63;;
73729;SDS011;62036;48.128;16.458;2024-03-07T10:06:52;9.10;;;5.50;;
73729;SDS011;62036;48.128;16.458;2024-03-07T10:09:18;6.50;;;4.78;;
73729;SDS011;62036;48.128;16.458;2024-03-07T10:11:54;9.88;;;5.32;;
73729;SDS011;62036;48.128;16.458;2024-03-07T10:14:21;11.43;;;7.30;;
73729;SDS011;62036;48.128;16.458;2024-03-07T10:16:47;7.68;;;4.82;;
73729;SDS011;62036;48.128;16.458;2024-03-07T10:19:13;8.52;;;4.43;;
73729;SDS011;62036;48.128;16.458;2024-03-07T10:21:40;8.38;;;5.55;;
73729;SDS011;62036;48.128;16.458;2024-03-07T10:24:06;8.23;;;4.75;;
73729;SDS011;62036;48.128;16.458;2024-03-07T10:26:36;10.70;;;6.00;;
73729;SDS011;62036;48.128;16.458;2024-03-07T10:29:06;12.27;;;6.00;;
73729;SDS011;62036;48.128;16.458;2024-03-07T10:31:33;11.70;;;5.25;;
73729;SDS011;62036;48.128;16.458;2024-03-07T10:34:03;8.95;;;6.28;;
73729;SDS011;62036;48.128;16.458;2024-03-07T10:36:29;10.65;;;6.40;;
73729;SDS011;62036;48.128;16.458;2024-03-07T10:38:59;13.13;;;7.20;;
73729;SDS011;62036;48.128;16.458;2024-03-07T10:41:27;11.23;;;6.22;;
73729;SDS011;62036;48.128;16.458;2024-03-07T10:43:56;14.23;;;6.65;;
73729;SDS011;62036;48.128;16.458;2024-03-07T10:46:26;12.90;;;6.40;;
73729;SDS011;62036;48.128;16.458;2024-03-07T10:48:55;10.02;;;6.35;;
73729;SDS011;62036;48.128;16.458;2024-03-07T10:51:24;14.77;;;8.52;;
73729;SDS011;62036;48.128;16.458;2024-03-07T10:59:32;9.57;;;5.35;;
73729;SDS011;62036;48.128;16.458;2024-03-07T11:01:41;12.32;;;6.85;;
73729;SDS011;62036;48.128;16.458;2024-03-07T11:04:08;11.15;;;6.10;;
73729;SDS011;62036;48.128;16.458;2024-03-07T11:06:35;10.95;;;6.00;;
73729;SDS011;62036;48.128;16.458;2024-03-07T11:09:02;10.02;;;6.00;;
73729;SDS011;62036;48.128;16.458;2024-03-07T11:11:36;15.07;;;7.45;;
73729;SDS011;62036;48.128;16.458;2024-03-07T11:14:02;12.10;;;6.03;;
73729;SDS011;62036;48.128;16.458;2024-03-07T11:16:29;11.05;;;5.72;;
73729;SDS011;62036;48.128;16.458;2024-03-07T11:19:37;10.02;;;6.03;;
73729;SDS011;62036;48.128;16.458;2024-03-07T11:21:46;12.80;;;7.10;;
73729;SDS011;62036;48.128;16.458;2024-03-07T11:24:22;11.07;;;6.28;;
73729;SDS011;62036;48.128;16.458;2024-03-07T11:26:50;10.20;;;6.03;;
73729;SDS011;62036;48.128;16.458;2024-03-07T11:32:01;9.82;;;5.50;;
73729;SDS011;62036;48.128;16.458;2024-03-07T11:34:30;15.65;;;8.55;;
73729;SDS011;62036;48.128;16.458;2024-03-07T11:36:57;15.77;;;7.30;;
73729;SDS011;62036;48.128;16.458;2024-03-07T11:39:40;9.18;;;6.30;;
73729;SDS011;62036;48.128;16.458;2024-03-07T11:42:07;14.98;;;7.60;;
73729;SDS011;62036;48.128;16.458;2024-03-07T11:44:33;11.68;;;8.48;;
73729;SDS011;62036;48.128;16.458;2024-03-07T11:47:00;15.57;;;6.85;;
73729;SDS011;62036;48.128;16.458;2024-03-07T11:49:34;13.30;;;6.85;;
73729;SDS011;62036;48.128;16.458;2024-03-07T11:52:01;10.45;;;5.90;;
73729;SDS011;62036;48.128;16.458;2024-03-07T11:54:30;10.93;;;6.80;;
73729;SDS011;62036;48.128;16.458;2024-03-07T11:56:56;13.82;;;7.38;;
73729;SDS011;62036;48.128;16.458;2024-03-07T11:59:23;12.63;;;6.93;;
73729;SDS011;62036;48.128;16.458;2024-03-07T12:01:49;13.27;;;7.32;;
73729;SDS011;62036;48.128;16.458;2024-03-07T12:04:15;14.80;;;7.10;;
73729;SDS011;62036;48.128;16.458;2024-03-07T12:06:49;18.25;;;8.02;;
73729;SDS011;62036;48.128;16.458;2024-03-07T12:09:15;19.50;;;9.23;;
73729;SDS011;62036;48.128;16.458;2024-03-07T12:11:49;11.70;;;7.18;;
73729;SDS011;62036;48.128;16.458;2024-03-07T12:14:18;15.13;;;8.02;;
73729;SDS011;62036;48.128;16.458;2024-03-07T12:16:45;12.63;;;7.70;;
73729;SDS011;62036;48.128;16.458;2024-03-07T12:19:11;19.67;;;10.55;;
73729;SDS011;62036;48.128;16.458;2024-03-07T12:21:37;16.83;;;7.43;;
73729;SDS011;62036;48.128;16.458;2024-03-07T12:24:13;12.27;;;6.65;;
73729;SDS011;62036;48.128;16.458;2024-03-07T12:26:40;13.57;;;7.70;;
73729;SDS011;62036;48.128;16.458;2024-03-07T12:29:10;14.23;;;7.57;;
73729;SDS011;62036;48.128;16.458;2024-03-07T12:31:40;16.70;;;8.25;;
73729;SDS011;62036;48.128;16.458;2024-03-07T12:34:06;13.15;;;7.00;;
73729;SDS011;62036;48.128;16.458;2024-03-07T12:36:34;15.90;;;8.10;;
73729;SDS011;62036;48.128;16.458;2024-03-07T12:39:10;15.45;;;7.40;;
73729;SDS011;62036;48.128;16.458;2024-03-07T12:41:49;17.25;;;8.48;;
73729;SDS011;62036;48.128;16.458;2024-03-07T12:44:18;18.85;;;10.20;;
73729;SDS011;62036;48.128;16.458;2024-03-07T12:46:48;17.40;;;8.93;;
73729;SDS011;62036;48.128;16.458;2024-03-07T12:49:14;25.02;;;11.02;;
73729;SDS011;62036;48.128;16.458;2024-03-07T12:51:43;14.02;;;8.05;;
73729;SDS011;62036;48.128;16.458;2024-03-07T12:54:09;17.05;;;8.52;;
73729;SDS011;62036;48.128;16.458;2024-03-07T12:56:36;20.52;;;10.65;;
73729;SDS011;62036;48.128;16.458;2024-03-07T12:59:05;18.48;;;9.52;;
73729;SDS011;62036;48.128;16.458;2024-03-07T13:01:35;16.95;;;8.57;;
73729;SDS011;62036;48.128;16.458;2024-03-07T13:04:09;25.60;;;9.40;;
73729;SDS011;62036;48.128;16.458;2024-03-07T13:06:35;20.30;;;9.70;;
73729;SDS011;62036;48.128;16.458;2024-03-07T13:09:01;21.08;;;10.75;;
73729;SDS011;62036;48.128;16.458;2024-03-07T13:11:28;21.15;;;9.27;;
73729;SDS011;62036;48.128;16.458;2024-03-07T13:13:57;16.95;;;9.32;;
73729;SDS011;62036;48.128;16.458;2024-03-07T13:16:23;20.35;;;9.40;;
73729;SDS011;62036;48.128;16.458;2024-03-07T13:18:55;13.55;;;7.30;;
73729;SDS011;62036;48.128;16.458;2024-03-07T13:21:21;11.23;;;7.30;;
73729;SDS011;62036;48.128;16.458;2024-03-07T13:23:47;15.25;;;7.80;;
73729;SDS011;62036;48.128;16.458;2024-03-07T13:26:16;19.23;;;9.00;;
73729;SDS011;62036;48.128;16.458;2024-03-07T13:28:45;20.75;;;10.32;;
73729;SDS011;62036;48.128;16.458;2024-03-07T13:31:12;13.70;;;8.23;;
73729;SDS011;62036;48.128;16.458;2024-03-07T13:33:42;13.70;;;7.15;;
73729;SDS011;62036;48.128;16.458;2024-03-07T13:36:08;20.48;;;8.95;;
73729;SDS011;62036;48.128;16.458;2024-03-07T13:38:34;17.90;;;8.88;;
73729;SDS011;62036;48.128;16.458;2024-03-07T13:41:01;18.80;;;8.68;;
73729;SDS011;62036;48.128;16.458;2024-03-07T13:43:30;20.25;;;10.23;;
73729;SDS011;62036;48.128;16.458;2024-03-07T13:45:58;15.30;;;7.43;;
73729;SDS011;62036;48.128;16.458;2024-03-07T13:48:25;19.17;;;9.55;;
73729;SDS011;62036;48.128;16.458;2024-03-07T13:50:51;17.58;;;9.20;;
73729;SDS011;62036;48.128;16.458;2024-03-07T13:53:19;14.57;;;7.78;;
73729;SDS011;62036;48.128;16.458;2024-03-07T14:30:41;15.38;;;7.95;;
73729;SDS011;62036;48.128;16.458;2024-03-07T14:33:09;14.35;;;6.72;;
73729;SDS011;62036;48.128;16.458;2024-03-07T14:35:57;17.80;;;8.75;;
73729;SDS011;62036;48.128;16.458;2024-03-07T14:38:28;16.13;;;8.40;;
73729;SDS011;62036;48.128;16.458;2024-03-07T14:40:55;19.00;;;8.43;;
73729;SDS011;62036;48.128;16.458;2024-03-07T14:43:22;19.55;;;8.90;;
73729;SDS011;62036;48.128;16.458;2024-03-07T14:45:49;21.13;;;9.45;;
73729;SDS011;62036;48.128;16.458;2024-03-07T14:48:16;15.48;;;7.70;;
73729;SDS011;62036;48.128;16.458;2024-03-07T14:50:43;16.20;;;8.50;;
73729;SDS011;62036;48.128;16.458;2024-03-07T14:53:11;16.30;;;9.50;;
73729;SDS011;62036;48.128;16.458;2024-03-07T14:55:38;15.73;;;8.48;;
73729;SDS011;62036;48.128;16.458;2024-03-07T14:58:05;17.27;;;7.95;;
73729;SDS011;62036;48.128;16.458;2024-03-07T15:00:34;14.38;;;7.53;;
73729;SDS011;62036;48.128;16.458;2024-03-07T15:03:06;19.10;;;9.63;;
73729;SDS011;62036;48.128;16.458;2024-03-07T15:05:33;21.65;;;10.18;;
73729;SDS011;62036;48.128;16.458;2024-03-07T15:08:00;13.00;;;7.40;;
73729;SDS011;62036;48.128;16.458;2024-03-07T15:10:31;17.90;;;9.55;;
73729;SDS011;62036;48.128;16.458;2024-03-07T15:12:59;16.58;;;9.23;;